Time;durP1;ratioP1;P1;durP2;ratioP2;P2;SDS_P1;SDS_P2;PMS_P1;PMS_P2;Temp;Humidity;BMP_temperature;BMP_pressure;BME280_temperature;BME280_humidity;BME280_pressure;Samples;Min_cycle;Max_cycle;Signal;HPM_P1;HPM_P2
2022/03/29 00:00:12;;;;;;;28.88;16.67;;;6.90;99.90;;;;;;5132526;27;20141;-72
2022/03/29 00:02:38;;;;;;;26.55;16.83;;;6.90;99.90;;;;;;5112835;28;20169;-71
2022/03/29 00:05:04;;;;;;;28.58;17.23;;;6.90;99.90;;;;;;5129725;28;20051;-72
2022/03/29 00:07:30;;;;;;;25.15;15.23;;;6.90;99.90;;;;;;5111377;28;20043;-72
2022/03/29 00:09:56;;;;;;;30.05;17.33;;;6.90;99.90;;;;;;5130333;28;20047;-72
2022/03/29 00:12:22;;;;;;;31.05;16.15;;;6.90;99.90;;;;;;5130828;27;20047;-73
2022/03/29 00:14:47;;;;;;;24.70;15.90;;;6.90;99.90;;;;;;5130325;28;20043;-74
2022/03/29 00:17:13;;;;;;;25.17;15.88;;;6.90;99.90;;;;;;5112554;28;20043;-71
2022/03/29 00:19:38;;;;;;;27.42;15.82;;;6.90;99.90;;;;;;5111254;28;20045;-72
2022/03/29 00:22:04;;;;;;;24.80;16.52;;;6.90;99.90;;;;;;5132555;27;20047;-71
2022/03/29 00:24:30;;;;;;;28.55;17.27;;;6.90;99.90;;;;;;5150270;27;20187;-71
2022/03/29 00:26:55;;;;;;;26.85;17.05;;;6.90;99.90;;;;;;5150553;27;20239;-71
2022/03/29 00:29:21;;;;;;;31.52;16.30;;;6.90;99.90;;;;;;5131885;27;20130;-73
2022/03/29 00:31:46;;;;;;;32.92;16.85;;;7.30;99.90;;;;;;5132201;27;20400;-72
2022/03/29 00:34:12;;;;;;;31.48;17.80;;;6.60;99.90;;;;;;5148807;27;20477;-71
2022/03/29 00:36:38;;;;;;;27.92;16.95;;;7.00;99.90;;;;;;5150253;27;20042;-72
2022/03/29 00:39:03;;;;;;;30.08;18.45;;;7.00;99.90;;;;;;5150447;27;20122;-71
2022/03/29 00:41:29;;;;;;;24.63;15.57;;;7.30;99.90;;;;;;5132175;27;20493;-74
2022/03/29 00:43:55;;;;;;;34.50;17.55;;;6.90;99.90;;;;;;5150351;27;20042;-76
2022/03/29 00:46:20;;;;;;;34.90;18.77;;;6.90;99.90;;;;;;5154418;27;20039;-72
2022/03/29 00:48:46;;;;;;;32.25;18.10;;;7.00;99.90;;;;;;5154292;27;20051;-74
2022/03/29 00:51:12;;;;;;;28.77;17.77;;;7.00;99.90;;;;;;5145791;27;20121;-75
2022/03/29 00:53:38;;;;;;;25.85;17.42;;;7.00;99.90;;;;;;5133165;27;20134;-77
2022/03/29 00:56:04;;;;;;;27.65;16.42;;;7.00;99.90;;;;;;5114693;27;20047;-77
2022/03/29 00:58:33;;;;;;;26.75;17.20;;;7.00;99.90;;;;;;5133567;27;20042;-74
2022/03/29 01:01:01;;;;;;;29.13;17.63;;;7.00;99.90;;;;;;5134911;27;20117;-79
2022/03/29 01:03:27;;;;;;;28.85;17.42;;;7.00;99.90;;;;;;5115006;27;20061;-73
2022/03/29 01:05:52;;;;;;;28.45;18.02;;;7.00;99.90;;;;;;5133131;27;20039;-72
2022/03/29 01:08:18;;;;;;;31.67;16.98;;;7.00;99.90;;;;;;5133828;27;20047;-72
2022/03/29 01:10:45;;;;;;;28.02;16.83;;;7.00;99.90;;;;;;5132913;27;20051;-78
2022/03/29 01:13:12;;;;;;;28.67;16.90;;;7.00;99.90;;;;;;5114739;27;20477;-74
2022/03/29 01:15:39;;;;;;;34.10;16.27;;;7.00;99.90;;;;;;5133274;27;20488;-72
2022/03/29 01:18:05;;;;;;;24.92;16.58;;;7.00;99.90;;;;;;5133192;27;20078;-72
2022/03/29 01:20:32;;;;;;;26.63;16.25;;;7.00;99.90;;;;;;5134006;27;20051;-71
2022/03/29 01:23:00;;;;;;;28.60;16.40;;;7.00;99.90;;;;;;5114887;27;20082;-72
2022/03/29 01:25:38;;;;;;;31.02;15.93;;;7.00;99.90;;;;;;5132634;27;20494;-72
2022/03/29 01:28:05;;;;;;;28.08;16.23;;;7.00;99.90;;;;;;5114550;27;20583;-76
2022/03/29 01:30:31;;;;;;;27.55;16.42;;;6.90;99.90;;;;;;5133845;27;20524;-73
2022/03/29 01:33:00;;;;;;;23.35;14.77;;;6.90;99.90;;;;;;5132750;27;20051;-72
2022/03/29 01:35:26;;;;;;;24.58;15.70;;;6.90;99.90;;;;;;5114102;27;20051;-76
2022/03/29 01:37:53;;;;;;;28.35;15.40;;;6.90;99.90;;;;;;5132095;27;20398;-71
2022/03/29 01:40:22;;;;;;;26.92;15.30;;;7.10;99.90;;;;;;5133767;27;20055;-72
2022/03/29 01:42:49;;;;;;;26.42;15.73;;;6.90;99.90;;;;;;5114260;27;20386;-72
2022/03/29 01:45:17;;;;;;;30.15;16.20;;;6.90;99.90;;;;;;5132547;27;20477;-72
2022/03/29 01:47:43;;;;;;;30.90;16.08;;;6.90;99.90;;;;;;5113915;27;20174;-71
2022/03/29 01:50:13;;;;;;;27.55;15.63;;;6.90;99.90;;;;;;5113586;27;20055;-76
2022/03/29 01:52:47;;;;;;;27.20;16.00;;;6.90;99.90;;;;;;5113788;27;20075;-73
2022/03/29 01:55:15;;;;;;;26.07;16.23;;;6.90;99.90;;;;;;5131589;27;20047;-72
2022/03/29 01:57:41;;;;;;;28.25;15.20;;;6.90;99.90;;;;;;5113773;27;20077;-77
2022/03/29 02:02:54;;;;;;;25.83;15.57;;;6.90;99.90;;;;;;5131356;27;20433;-72
2022/03/29 02:05:20;;;;;;;28.30;16.10;;;6.90;99.90;;;;;;5134432;27;20596;-75
2022/03/29 02:07:45;;;;;;;27.23;15.82;;;6.90;99.90;;;;;;5152791;27;20482;-72
2022/03/29 02:10:15;;;;;;;30.83;15.93;;;6.90;99.90;;;;;;5152169;27;20051;-71
2022/03/29 02:12:41;;;;;;;26.73;15.82;;;6.90;99.90;;;;;;5150709;27;20489;-80
2022/03/29 02:15:07;;;;;;;26.40;15.02;;;6.90;99.90;;;;;;5133086;27;20061;-73
2022/03/29 02:17:33;;;;;;;25.05;15.55;;;6.90;99.90;;;;;;5143760;27;20043;-72
2022/03/29 02:19:58;;;;;;;29.55;14.88;;;6.90;99.90;;;;;;5112984;27;20065;-72
2022/03/29 02:22:24;;;;;;;38.88;17.00;;;6.90;99.90;;;;;;5131939;27;20439;-72
2022/03/29 02:24:50;;;;;;;29.50;16.73;;;6.90;99.90;;;;;;5131863;27;20146;-72
2022/03/29 02:27:15;;;;;;;29.88;15.88;;;6.90;99.90;;;;;;5114512;27;20537;-75
2022/03/29 02:29:41;;;;;;;28.15;15.70;;;6.90;99.90;;;;;;5150366;27;20042;-71
2022/03/29 02:32:07;;;;;;;26.70;15.43;;;6.90;99.90;;;;;;5111280;27;20082;-71
2022/03/29 02:34:33;;;;;;;28.10;16.30;;;6.90;99.90;;;;;;5131483;27;20119;-73
2022/03/29 02:36:58;;;;;;;28.42;17.00;;;6.90;99.90;;;;;;5113034;27;20087;-77
2022/03/29 02:39:24;;;;;;;30.77;17.42;;;6.80;99.90;;;;;;5117861;27;20082;-76
2022/03/29 02:41:50;;;;;;;30.00;18.25;;;6.80;99.90;;;;;;5116638;27;20073;-72
2022/03/29 02:44:16;;;;;;;36.53;18.23;;;6.80;99.90;;;;;;5114008;27;20062;-77
2022/03/29 02:46:44;;;;;;;34.85;19.38;;;6.80;99.90;;;;;;5113103;27;20058;-71
2022/03/29 02:49:09;;;;;;;34.80;19.10;;;6.80;99.90;;;;;;5131075;27;20102;-74
2022/03/29 02:51:35;;;;;;;34.78;18.23;;;6.80;99.90;;;;;;5132671;27;20130;-71
2022/03/29 02:54:01;;;;;;;30.38;19.13;;;6.90;99.90;;;;;;5131299;27;20087;-72
2022/03/29 02:56:28;;;;;;;35.85;19.40;;;6.80;99.90;;;;;;5112348;27;20047;-72
2022/03/29 02:58:53;;;;;;;35.03;19.17;;;6.80;99.90;;;;;;5136049;27;20396;-74
2022/03/29 03:01:19;;;;;;;35.10;19.45;;;6.80;99.90;;;;;;5149751;27;20043;-75
2022/03/29 03:03:45;;;;;;;34.22;19.33;;;6.80;99.90;;;;;;5133088;27;20042;-72
2022/03/29 03:06:11;;;;;;;34.05;19.20;;;6.80;99.90;;;;;;5112170;27;20430;-71
2022/03/29 03:08:37;;;;;;;30.60;18.65;;;6.80;99.90;;;;;;5131100;27;20043;-71
2022/03/29 03:11:03;;;;;;;39.40;20.05;;;7.10;99.90;;;;;;5131766;27;20400;-71
2022/03/29 03:13:29;;;;;;;35.53;19.17;;;6.80;99.90;;;;;;5112144;27;20051;-72
2022/03/29 03:15:55;;;;;;;36.15;18.80;;;6.80;99.90;;;;;;5112332;27;20050;-71
2022/03/29 03:18:21;;;;;;;33.30;18.75;;;6.90;99.90;;;;;;5130839;27;20144;-72
2022/03/29 03:20:46;;;;;;;32.83;18.90;;;6.80;99.90;;;;;;5130588;27;20106;-71
2022/03/29 03:23:12;;;;;;;30.35;18.48;;;6.80;99.90;;;;;;5143388;27;20042;-71
2022/03/29 03:25:38;;;;;;;32.20;18.65;;;6.80;99.90;;;;;;5130509;27;20078;-72
2022/03/29 03:28:04;;;;;;;32.53;18.63;;;6.80;99.90;;;;;;5119630;27;20150;-71
2022/03/29 03:30:30;;;;;;;51.55;20.50;;;6.80;99.90;;;;;;5151376;27;20055;-72
2022/03/29 03:32:56;;;;;;;32.92;17.90;;;6.80;99.90;;;;;;5141661;27;20046;-71
2022/03/29 03:35:22;;;;;;;34.05;19.20;;;6.90;99.90;;;;;;5112276;28;20046;-71
2022/03/29 03:37:48;;;;;;;31.33;18.60;;;6.80;99.90;;;;;;5130733;28;20039;-72
2022/03/29 03:40:14;;;;;;;34.30;19.25;;;6.80;99.90;;;;;;5145871;27;20549;-71
2022/03/29 03:42:40;;;;;;;38.03;18.92;;;6.90;99.90;;;;;;5144760;27;20080;-71
2022/03/29 03:45:07;;;;;;;33.30;17.83;;;6.80;99.90;;;;;;5130292;27;20061;-71
2022/03/29 03:47:33;;;;;;;36.92;20.17;;;6.70;99.90;;;;;;5130369;27;20053;-71
2022/03/29 03:49:59;;;;;;;37.75;19.35;;;6.80;99.90;;;;;;5111853;28;20043;-71
2022/03/29 03:52:25;;;;;;;33.72;18.77;;;6.70;99.90;;;;;;5130371;28;20142;-70
2022/03/29 03:54:51;;;;;;;35.05;19.05;;;6.70;99.90;;;;;;5131680;27;20558;-71
2022/03/29 03:57:18;;;;;;;37.28;18.95;;;6.70;99.90;;;;;;5130007;27;20047;-71
2022/03/29 03:59:48;;;;;;;32.22;18.88;;;6.70;99.90;;;;;;5131075;27;20043;-71
2022/03/29 04:02:16;;;;;;;40.22;18.40;;;6.80;99.90;;;;;;5129966;27;20039;-71
2022/03/29 04:04:42;;;;;;;34.38;18.42;;;6.70;99.90;;;;;;5112784;28;20086;-72
2022/03/29 04:07:07;;;;;;;39.25;19.98;;;6.70;99.90;;;;;;5111662;28;20087;-71
2022/03/29 04:09:36;;;;;;;41.80;19.77;;;6.80;99.90;;;;;;5111423;28;20043;-71
2022/03/29 04:12:03;;;;;;;36.22;19.48;;;6.70;99.90;;;;;;5111501;28;20047;-72
2022/03/29 04:14:29;;;;;;;36.47;18.83;;;6.70;99.90;;;;;;5136747;27;20054;-72
2022/03/29 04:16:55;;;;;;;34.63;18.05;;;6.80;99.90;;;;;;5131596;27;20051;-71
2022/03/29 04:19:20;;;;;;;37.28;19.30;;;6.90;99.90;;;;;;5135893;27;20043;-71
2022/03/29 04:21:46;;;;;;;38.03;19.20;;;6.80;99.90;;;;;;5135920;27;20379;-71
2022/03/29 04:24:12;;;;;;;32.22;19.05;;;6.70;99.90;;;;;;5154778;27;20485;-71
2022/03/29 04:26:39;;;;;;;34.53;19.17;;;6.80;99.90;;;;;;5152650;27;20442;-73
2022/03/29 04:29:04;;;;;;;34.35;19.48;;;6.70;99.90;;;;;;5154167;27;20552;-72
2022/03/29 04:31:30;;;;;;;30.17;18.52;;;6.70;99.90;;;;;;5135631;27;20042;-72
2022/03/29 04:33:58;;;;;;;37.58;19.20;;;6.70;99.90;;;;;;5135991;27;20386;-71
2022/03/29 04:36:24;;;;;;;31.95;17.50;;;6.70;99.90;;;;;;5152296;27;20098;-72
2022/03/29 04:38:50;;;;;;;34.78;18.70;;;6.70;99.90;;;;;;5135619;27;20094;-72
2022/03/29 04:41:16;;;;;;;35.03;20.55;;;6.70;99.90;;;;;;5118192;27;20082;-74
2022/03/29 04:43:42;;;;;;;34.65;18.92;;;6.70;99.90;;;;;;5148202;27;20104;-73
2022/03/29 04:46:08;;;;;;;32.50;19.70;;;6.70;99.90;;;;;;5152162;27;20043;-78
2022/03/29 04:48:34;;;;;;;34.03;19.63;;;6.70;99.90;;;;;;5154268;27;20241;-73
2022/03/29 04:51:00;;;;;;;37.03;19.15;;;6.70;99.90;;;;;;5154057;27;20743;-75
2022/03/29 04:53:25;;;;;;;33.20;18.05;;;6.70;99.90;;;;;;5154188;27;20049;-72
2022/03/29 04:55:51;;;;;;;37.42;19.85;;;6.70;99.90;;;;;;5154122;27;20049;-72
2022/03/29 04:58:17;;;;;;;30.25;17.85;;;6.70;99.90;;;;;;5152285;27;20037;-72
2022/03/29 05:00:43;;;;;;;37.03;19.95;;;7.00;99.90;;;;;;5135096;27;20050;-73
2022/03/29 05:03:08;;;;;;;36.42;19.92;;;6.70;99.90;;;;;;5153964;27;20501;-74
2022/03/29 05:05:35;;;;;;;35.47;19.17;;;6.70;99.90;;;;;;5153600;27;20042;-72
2022/03/29 05:08:00;;;;;;;42.95;20.45;;;6.60;99.90;;;;;;5133152;27;20065;-74
2022/03/29 05:10:26;;;;;;;35.90;19.77;;;6.70;99.90;;;;;;5135180;27;20050;-71
2022/03/29 05:12:52;;;;;;;35.70;20.00;;;6.70;99.90;;;;;;5153381;27;20039;-73
2022/03/29 05:15:20;;;;;;;35.42;20.40;;;6.70;99.90;;;;;;5136921;27;20097;-73
2022/03/29 05:17:46;;;;;;;34.33;19.00;;;6.70;99.90;;;;;;5115981;27;20047;-72
2022/03/29 05:20:13;;;;;;;39.45;20.95;;;6.70;99.90;;;;;;5114606;27;20049;-74
2022/03/29 05:22:45;;;;;;;36.45;19.90;;;6.60;99.90;;;;;;5132598;27;20046;-75
2022/03/29 05:25:17;;;;;;;36.40;20.42;;;6.60;99.90;;;;;;5132941;27;20447;-72
2022/03/29 05:27:43;;;;;;;32.53;19.42;;;6.60;99.90;;;;;;5133178;27;20433;-73
2022/03/29 05:30:10;;;;;;;34.05;20.77;;;6.60;99.90;;;;;;5133144;27;20051;-72
2022/03/29 05:32:35;;;;;;;33.47;19.75;;;6.60;99.90;;;;;;5114278;27;20046;-72
2022/03/29 05:35:02;;;;;;;34.63;20.27;;;6.60;99.90;;;;;;5132500;27;20035;-75
2022/03/29 05:37:28;;;;;;;35.88;19.98;;;6.60;99.90;;;;;;5132637;27;20458;-72
2022/03/29 05:39:53;;;;;;;37.58;21.02;;;6.60;99.90;;;;;;5134279;27;20121;-72
2022/03/29 05:42:20;;;;;;;40.15;20.50;;;6.60;99.90;;;;;;5114497;27;20214;-72
2022/03/29 05:44:45;;;;;;;40.85;21.92;;;6.60;99.90;;;;;;5132439;27;20126;-75
2022/03/29 05:49:57;;;;;;;38.75;20.25;;;6.60;99.90;;;;;;5133287;27;20047;-73
2022/03/29 05:52:23;;;;;;;40.00;21.23;;;6.60;99.90;;;;;;5114014;27;20439;-82
2022/03/29 05:54:49;;;;;;;34.50;20.42;;;6.60;99.90;;;;;;5132434;27;20046;-72
2022/03/29 05:57:16;;;;;;;43.42;21.13;;;6.60;99.90;;;;;;5132157;27;20055;-73
2022/03/29 05:59:42;;;;;;;36.10;20.25;;;6.60;99.90;;;;;;5132420;27;20035;-73
2022/03/29 06:02:08;;;;;;;34.85;20.75;;;6.90;99.90;;;;;;5114717;27;20039;-72
2022/03/29 06:04:35;;;;;;;41.22;22.23;;;6.70;99.90;;;;;;5113543;27;20096;-80
2022/03/29 06:07:02;;;;;;;37.70;20.98;;;6.70;99.90;;;;;;5130538;27;20042;-77
2022/03/29 06:09:28;;;;;;;34.03;20.30;;;6.70;99.90;;;;;;5153091;27;20043;-72
2022/03/29 06:11:54;;;;;;;36.35;20.83;;;6.70;99.90;;;;;;5151120;27;20050;-76
2022/03/29 06:14:20;;;;;;;42.60;20.40;;;6.70;99.90;;;;;;5151027;27;20038;-71
2022/03/29 06:16:46;;;;;;;39.55;22.35;;;6.70;99.90;;;;;;5134021;27;20057;-74
2022/03/29 06:19:12;;;;;;;36.50;20.58;;;6.70;99.90;;;;;;5151586;27;20133;-73
2022/03/29 06:21:38;;;;;;;39.72;21.95;;;6.70;99.90;;;;;;5152440;27;20501;-71
2022/03/29 06:24:04;;;;;;;37.63;22.33;;;6.70;99.90;;;;;;5150742;27;20046;-75
2022/03/29 06:26:30;;;;;;;37.25;21.25;;;6.70;99.90;;;;;;5152345;27;20055;-74
2022/03/29 06:28:56;;;;;;;36.47;21.33;;;7.20;99.90;;;;;;5133498;27;20492;-72
2022/03/29 06:31:22;;;;;;;41.65;22.25;;;6.80;99.90;;;;;;5152243;27;20046;-72
2022/03/29 06:33:48;;;;;;;41.08;22.27;;;6.80;99.90;;;;;;5140319;27;20494;-73
2022/03/29 06:36:14;;;;;;;35.03;21.73;;;6.80;99.90;;;;;;5131406;27;20051;-72
2022/03/29 06:38:39;;;;;;;46.38;23.02;;;6.80;99.90;;;;;;5131570;27;20074;-75
2022/03/29 06:41:05;;;;;;;37.63;21.75;;;6.80;99.90;;;;;;5112825;27;20780;-73
2022/03/29 06:43:34;;;;;;;43.63;23.13;;;6.80;99.90;;;;;;5132631;27;20038;-73
2022/03/29 06:46:01;;;;;;;42.38;22.83;;;6.80;99.90;;;;;;5131877;27;20413;-76
2022/03/29 06:48:27;;;;;;;38.95;22.05;;;6.80;99.90;;;;;;5151525;27;20038;-78
2022/03/29 06:50:53;;;;;;;39.67;23.40;;;6.90;99.90;;;;;;5148637;27;20479;-71
2022/03/29 06:53:19;;;;;;;43.67;23.45;;;6.90;99.90;;;;;;5127647;27;20103;-70
2022/03/29 06:55:44;;;;;;;38.72;23.35;;;6.90;99.90;;;;;;5131903;27;20051;-71
2022/03/29 06:58:10;;;;;;;46.75;22.35;;;6.90;99.90;;;;;;5130613;27;20398;-71
2022/03/29 07:00:36;;;;;;;36.60;23.15;;;7.00;99.90;;;;;;5130138;27;20047;-71
2022/03/29 07:03:02;;;;;;;43.20;22.88;;;7.00;99.90;;;;;;5150275;27;20046;-70
2022/03/29 07:05:28;;;;;;;42.00;22.52;;;7.00;99.90;;;;;;5150571;27;20042;-70
2022/03/29 07:07:54;;;;;;;41.38;22.48;;;7.00;99.90;;;;;;5112046;27;20051;-71
2022/03/29 07:13:05;;;;;;;39.83;21.65;;;7.10;99.90;;;;;;5131913;27;20071;-70
2022/03/29 07:15:31;;;;;;;42.00;22.20;;;7.10;99.90;;;;;;5130004;27;20468;-70
2022/03/29 07:17:59;;;;;;;43.33;23.15;;;7.10;99.90;;;;;;5135736;27;20432;-71
2022/03/29 07:20:25;;;;;;;48.28;22.58;;;7.20;99.90;;;;;;5130914;27;20058;-70
2022/03/29 07:22:52;;;;;;;42.00;23.75;;;7.20;99.90;;;;;;5130224;27;20027;-72
2022/03/29 07:25:19;;;;;;;42.63;22.05;;;7.20;99.90;;;;;;5130575;27;20082;-72
2022/03/29 07:27:46;;;;;;;41.22;22.55;;;7.20;99.90;;;;;;5130450;27;20047;-71
2022/03/29 07:30:12;;;;;;;42.03;22.95;;;7.10;99.90;;;;;;5129603;27;20047;-71
2022/03/29 07:32:45;;;;;;;49.33;24.02;;;7.20;99.90;;;;;;5130368;27;20082;-71
2022/03/29 07:35:12;;;;;;;47.05;23.60;;;7.20;99.90;;;;;;5130733;28;20051;-71
2022/03/29 07:37:37;;;;;;;39.67;20.38;;;7.20;99.90;;;;;;5111141;28;20850;-72
2022/03/29 07:40:04;;;;;;;45.40;21.75;;;7.20;99.90;;;;;;5127928;27;20130;-71
2022/03/29 07:42:31;;;;;;;46.80;22.08;;;7.20;99.90;;;;;;5150501;27;20047;-70
2022/03/29 07:44:57;;;;;;;39.90;20.88;;;7.40;99.90;;;;;;5150453;27;20053;-71
2022/03/29 07:47:22;;;;;;;44.22;20.92;;;7.30;99.90;;;;;;5131874;27;20141;-70
2022/03/29 07:49:48;;;;;;;48.78;20.35;;;7.30;99.90;;;;;;5142838;27;20051;-70
2022/03/29 07:52:14;;;;;;;42.42;21.27;;;7.80;99.90;;;;;;5150483;27;20130;-74
2022/03/29 07:54:40;;;;;;;43.20;21.80;;;7.40;99.90;;;;;;5136093;27;20059;-70
2022/03/29 07:57:08;;;;;;;43.30;20.00;;;7.40;99.90;;;;;;5154714;27;20035;-71
2022/03/29 07:59:35;;;;;;;41.03;20.55;;;7.60;99.90;;;;;;5152917;27;20050;-70
2022/03/29 08:02:01;;;;;;;41.67;20.90;;;7.50;99.90;;;;;;5153794;27;20046;-70
2022/03/29 08:04:27;;;;;;;48.55;21.02;;;7.50;99.90;;;;;;5136251;27;20043;-71
2022/03/29 08:06:52;;;;;;;41.60;19.95;;;7.60;99.90;;;;;;5149141;27;20043;-71
2022/03/29 08:09:18;;;;;;;40.78;20.30;;;7.60;99.90;;;;;;5154482;27;20035;-72
2022/03/29 08:11:44;;;;;;;41.22;19.80;;;7.60;99.90;;;;;;5123897;27;20879;-76
2022/03/29 08:14:12;;;;;;;51.90;20.60;;;7.70;99.90;;;;;;5097714;28;20055;-76
2022/03/29 08:16:39;;;;;;;38.45;20.25;;;7.80;99.90;;;;;;5111838;28;20043;-72
2022/03/29 08:19:05;;;;;;;46.72;20.30;;;7.80;99.90;;;;;;5113465;27;20048;-70
2022/03/29 08:21:49;;;;;;;44.80;20.33;;;7.90;99.90;;;;;;5116154;27;20100;-70
2022/03/29 08:24:20;;;;;;;50.70;20.40;;;8.00;99.90;;;;;;5133607;27;20059;-71
2022/03/29 08:26:48;;;;;;;41.38;21.48;;;8.00;99.90;;;;;;5133749;27;20315;-71
2022/03/29 08:29:16;;;;;;;40.33;21.38;;;8.00;99.90;;;;;;5130764;27;20051;-73
2022/03/29 08:31:43;;;;;;;45.95;21.55;;;8.10;99.90;;;;;;5117217;27;20043;-73
2022/03/29 08:34:09;;;;;;;45.35;21.60;;;8.20;99.90;;;;;;5111608;28;20051;-72
2022/03/29 08:36:36;;;;;;;41.75;21.42;;;8.30;99.90;;;;;;5112048;28;20206;-72
2022/03/29 08:39:04;;;;;;;44.80;21.27;;;8.30;99.90;;;;;;5110824;28;20078;-73
2022/03/29 08:41:36;;;;;;;39.50;20.70;;;8.40;99.90;;;;;;5093014;28;20054;-72
2022/03/29 08:44:01;;;;;;;43.95;20.90;;;8.70;99.90;;;;;;5113520;27;20089;-73
2022/03/29 08:46:33;;;;;;;38.90;20.02;;;8.50;99.90;;;;;;5114627;27;20151;-72
2022/03/29 08:48:59;;;;;;;40.25;20.60;;;8.20;99.90;;;;;;5132399;27;20035;-72
2022/03/29 08:51:25;;;;;;;44.10;21.90;;;8.80;99.90;;;;;;5132007;27;20067;-71
2022/03/29 08:53:51;;;;;;;38.58;18.98;;;9.00;99.90;;;;;;5114042;27;20078;-71
2022/03/29 08:56:17;;;;;;;40.65;20.63;;;9.10;99.90;;;;;;5132909;27;20077;-71
2022/03/29 08:58:42;;;;;;;49.47;20.45;;;9.30;99.90;;;;;;5113025;27;20054;-76
2022/03/29 09:01:08;;;;;;;42.92;20.33;;;9.20;99.90;;;;;;5132586;27;20043;-72
2022/03/29 09:03:33;;;;;;;36.70;19.13;;;9.30;99.90;;;;;;5130136;27;20097;-73
2022/03/29 09:06:08;;;;;;;42.35;19.25;;;9.30;99.90;;;;;;5112699;27;20051;-74
2022/03/29 09:08:47;;;;;;;48.45;19.67;;;9.30;99.90;;;;;;5129398;27;20047;-78
2022/03/29 09:11:16;;;;;;;37.47;19.88;;;9.40;99.90;;;;;;5132259;27;20086;-74
2022/03/29 09:13:42;;;;;;;42.97;20.10;;;9.40;99.90;;;;;;5131458;27;20050;-76
2022/03/29 09:16:34;;;;;;;35.08;18.58;;;9.40;99.90;;;;;;5128636;27;20188;-72
2022/03/29 09:19:01;;;;;;;39.58;19.50;;;9.40;99.90;;;;;;5128179;27;20065;-78
2022/03/29 09:21:40;;;;;;;39.20;19.30;;;9.40;99.90;;;;;;5129524;27;20046;-80
2022/03/29 09:24:16;;;;;;;41.03;19.67;;;9.50;99.90;;;;;;5132296;27;20043;-81
2022/03/29 09:26:44;;;;;;;35.15;19.00;;;9.50;99.90;;;;;;5128518;27;20062;-74
2022/03/29 09:29:13;;;;;;;45.28;18.60;;;9.50;99.90;;;;;;5130648;27;20389;-75
2022/03/29 09:31:39;;;;;;;34.88;14.85;;;9.60;99.90;;;;;;5130913;27;20054;-82
2022/03/29 09:34:18;;;;;;;34.13;14.75;;;9.60;99.90;;;;;;5120421;27;20402;-80
2022/03/29 09:36:48;;;;;;;25.08;12.93;;;9.60;99.90;;;;;;5110657;28;20485;-77
2022/03/29 09:39:35;;;;;;;32.08;13.15;;;9.60;99.90;;;;;;5111776;28;20040;-74
2022/03/29 09:42:03;;;;;;;34.67;12.52;;;9.80;99.90;;;;;;5110982;28;20730;-72
2022/03/29 09:44:44;;;;;;;29.88;12.45;;;9.80;99.90;;;;;;5111134;27;20093;-78
2022/03/29 09:47:15;;;;;;;28.00;12.82;;;10.10;99.90;;;;;;5127465;27;20039;-78
2022/03/29 09:50:07;;;;;;;37.83;13.38;;;10.20;99.90;;;;;;5132354;27;20111;-74
2022/03/29 09:52:43;;;;;;;32.42;12.10;;;10.30;99.90;;;;;;5115458;27;20078;-72
2022/03/29 09:55:21;;;;;;;37.67;11.98;;;10.50;99.90;;;;;;5122060;27;20066;-73
2022/03/29 09:57:46;;;;;;;31.08;12.20;;;11.00;99.90;;;;;;5131011;27;20098;-73
2022/03/29 10:00:18;;;;;;;40.40;12.43;;;10.60;99.90;;;;;;5130998;27;20046;-73
2022/03/29 10:02:47;;;;;;;31.58;11.68;;;10.80;99.90;;;;;;5130542;27;20050;-74
2022/03/29 10:05:16;;;;;;;27.20;11.52;;;11.00;99.90;;;;;;5130667;27;20058;-73
2022/03/29 10:10:49;;;;;;;30.25;11.23;;;11.00;99.90;;;;;;5112330;27;20510;-72
2022/03/29 10:13:16;;;;;;;39.67;12.02;;;11.10;99.90;;;;;;5109005;28;20162;-73
2022/03/29 10:15:45;;;;;;;30.65;12.77;;;11.10;99.90;;;;;;5111510;28;20451;-81
2022/03/29 10:18:11;;;;;;;27.13;11.05;;;11.20;99.90;;;;;;5111088;27;20061;-73
2022/03/29 10:20:39;;;;;;;30.23;11.27;;;11.30;99.90;;;;;;5112357;27;20043;-76
2022/03/29 10:23:06;;;;;;;34.72;10.52;;;11.30;99.90;;;;;;5125669;27;20051;-72
2022/03/29 10:25:32;;;;;;;85.97;12.75;;;11.30;99.90;;;;;;5130269;27;20122;-72
2022/03/29 10:28:00;;;;;;;29.70;10.23;;;11.50;99.90;;;;;;5128960;27;20045;-76
2022/03/29 10:30:34;;;;;;;37.85;10.52;;;11.40;99.90;;;;;;5125719;27;20051;-78
2022/03/29 10:33:23;;;;;;;30.20;9.93;;;11.30;99.90;;;;;;5110393;27;20050;-76
2022/03/29 10:36:11;;;;;;;26.30;10.00;;;11.30;99.90;;;;;;5111386;28;20126;-73
2022/03/29 10:38:46;;;;;;;21.10;9.75;;;11.30;99.90;;;;;;5111264;28;20500;-78
2022/03/29 10:41:27;;;;;;;54.67;12.18;;;11.40;99.90;;;;;;5111164;28;20051;-75
2022/03/29 10:44:08;;;;;;;27.23;10.10;;;11.40;99.90;;;;;;5111707;27;20056;-81
2022/03/29 10:46:48;;;;;;;64.35;10.98;;;11.70;99.90;;;;;;5111267;28;20090;-75
2022/03/29 10:49:21;;;;;;;25.20;9.65;;;11.90;99.90;;;;;;5110939;28;20031;-75
2022/03/29 10:51:51;;;;;;;36.90;10.25;;;12.20;99.90;;;;;;5111113;28;20082;-77
2022/03/29 10:54:29;;;;;;;29.02;9.40;;;12.30;99.90;;;;;;5111987;27;20035;-76
2022/03/29 10:56:55;;;;;;;30.48;9.10;;;12.40;99.90;;;;;;5121319;27;20062;-76
2022/03/29 10:59:22;;;;;;;29.73;9.00;;;12.70;99.90;;;;;;5131049;27;20066;-76
2022/03/29 11:02:13;;;;;;;24.30;8.77;;;12.50;99.90;;;;;;5126056;27;20555;-74
2022/03/29 11:05:08;;;;;;;27.40;9.27;;;12.50;99.90;;;;;;5110723;28;20044;-77
2022/03/29 11:07:51;;;;;;;28.25;10.40;;;12.50;99.90;;;;;;5110834;28;20035;-76
2022/03/29 11:10:19;;;;;;;25.42;8.80;;;12.60;99.90;;;;;;5110521;28;20055;-76
2022/03/29 11:12:54;;;;;;;52.58;10.98;;;12.80;99.90;;;;;;5110492;27;20063;-74
2022/03/29 11:15:32;;;;;;;44.58;9.80;;;12.50;99.90;;;;;;5110353;28;20055;-75
2022/03/29 11:17:58;;;;;;;32.38;9.90;;;12.40;99.90;;;;;;5110538;28;20138;-75
2022/03/29 11:20:35;;;;;;;21.60;8.68;;;12.50;99.90;;;;;;5110237;28;20149;-76
2022/03/29 11:23:09;;;;;;;31.55;9.23;;;12.50;99.90;;;;;;5110340;28;20486;-74
2022/03/29 11:25:41;;;;;;;22.55;8.43;;;12.50;99.90;;;;;;5111108;27;20105;-76
2022/03/29 11:28:14;;;;;;;28.15;8.65;;;12.60;99.90;;;;;;5128245;27;20564;-72
2022/03/29 11:30:41;;;;;;;35.08;9.10;;;12.50;99.90;;;;;;5130820;27;20383;-76
2022/03/29 11:33:09;;;;;;;22.73;7.80;;;12.70;99.90;;;;;;5130506;28;20493;-73
2022/03/29 11:35:37;;;;;;;27.17;8.82;;;12.70;99.90;;;;;;5130522;28;20591;-76
2022/03/29 11:38:21;;;;;;;33.33;9.25;;;12.60;99.90;;;;;;5127456;28;20085;-76
2022/03/29 11:40:46;;;;;;;25.00;8.30;;;12.70;99.90;;;;;;5122519;28;20130;-76
2022/03/29 11:43:14;;;;;;;24.40;8.10;;;12.80;99.90;;;;;;5118179;28;20538;-79
2022/03/29 11:45:43;;;;;;;31.10;9.10;;;12.80;99.90;;;;;;5108298;28;20118;-77
2022/03/29 11:48:12;;;;;;;24.30;8.00;;;12.60;99.90;;;;;;5109878;28;20079;-76
2022/03/29 11:50:44;;;;;;;27.70;8.27;;;12.70;99.90;;;;;;5108493;28;20130;-77
2022/03/29 11:53:22;;;;;;;27.67;8.55;;;12.50;99.90;;;;;;5108175;28;20036;-76
2022/03/29 11:56:07;;;;;;;22.95;7.85;;;12.90;99.90;;;;;;5110039;28;20043;-75
2022/03/29 11:58:40;;;;;;;;;;;12.50;99.90;;;;;;5108996;28;20379;-73
2022/03/29 12:01:08;;;;;;;33.17;8.98;;;12.40;99.90;;;;;;5109494;28;19924;-79
2022/03/29 12:03:36;;;;;;;16.48;7.80;;;12.40;99.90;;;;;;5109721;28;20057;-77
2022/03/29 12:06:04;;;;;;;19.00;8.27;;;12.20;99.90;;;;;;5109737;28;20079;-73
2022/03/29 12:08:47;;;;;;;23.70;7.82;;;12.20;99.90;;;;;;5109504;28;20052;-72
2022/03/29 12:11:15;;;;;;;28.67;9.00;;;12.20;99.90;;;;;;5108121;28;20071;-72
2022/03/29 12:13:42;;;;;;;29.98;7.60;;;12.30;99.90;;;;;;5108195;28;20055;-73
2022/03/29 12:16:20;;;;;;;26.83;7.60;;;12.30;99.90;;;;;;5108239;28;20051;-73
2022/03/29 12:18:47;;;;;;;21.33;7.78;;;12.20;99.90;;;;;;5110229;28;20079;-74
2022/03/29 12:21:14;;;;;;;23.52;8.18;;;12.20;99.90;;;;;;5109710;28;20043;-76
2022/03/29 12:23:41;;;;;;;23.27;7.07;;;12.40;99.90;;;;;;5109538;28;20051;-78
2022/03/29 12:26:10;;;;;;;20.73;7.88;;;12.40;99.90;;;;;;5107997;28;20849;-73
2022/03/29 12:28:37;;;;;;;20.17;7.75;;;12.50;99.90;;;;;;5107994;28;20054;-79
2022/03/29 12:31:13;;;;;;;19.15;8.18;;;12.90;99.90;;;;;;5107589;28;20122;-75
2022/03/29 12:33:40;;;;;;;26.05;7.63;;;13.40;99.90;;;;;;5108215;28;20032;-76
2022/03/29 12:36:12;;;;;;;21.30;7.78;;;13.20;99.90;;;;;;5109640;28;20044;-78
2022/03/29 12:38:42;;;;;;;24.27;8.52;;;13.20;99.90;;;;;;5110376;28;20047;-76
2022/03/29 12:41:08;;;;;;;24.27;8.65;;;13.50;99.90;;;;;;5113124;28;20510;-74
2022/03/29 12:43:35;;;;;;;29.70;8.20;;;14.00;99.90;;;;;;5112801;28;20039;-78
2022/03/29 12:46:05;;;;;;;26.45;9.27;;;14.10;99.90;;;;;;5111921;28;20050;-73
2022/03/29 12:48:31;;;;;;;22.13;8.95;;;13.90;99.90;;;;;;5112759;28;20059;-77
2022/03/29 12:51:03;;;;;;;28.85;9.00;;;14.20;99.90;;;;;;5111447;28;20054;-78